Time;durP1;ratioP1;P1;durP2;ratioP2;P2;SDS_P1;SDS_P2;PMS_P1;PMS_P2;Temp;Humidity;BMP_temperature;BMP_pressure;BME280_temperature;BME280_humidity;BME280_pressure;Samples;Min_cycle;Max_cycle;Signal;HPM_P1;HPM_P2
2024/01/19 00:01:22;;;;;;;20.00;8.73;;;;;;;-5.11;100.00;100546.47;5086482;28;20098;-67
2024/01/19 00:03:56;;;;;;;23.47;8.20;;;;;;;-5.11;100.00;100551.63;5089954;28;20286;-65
2024/01/19 00:06:22;;;;;;;23.02;10.68;;;;;;;-5.13;100.00;100558.28;5080335;28;20048;-69
2024/01/19 00:08:47;;;;;;;18.63;8.50;;;;;;;-5.14;100.00;100557.38;5092284;28;20028;-65
2024/01/19 00:11:14;;;;;;;20.07;8.77;;;;;;;-5.17;100.00;100557.06;5092492;28;20534;-66
2024/01/19 00:13:40;;;;;;;20.73;8.07;;;;;;;-5.16;100.00;100563.13;5083042;28;20277;-68
2024/01/19 00:16:05;;;;;;;23.65;8.73;;;;;;;-5.18;100.00;100557.84;5092412;28;20046;-66
2024/01/19 00:18:31;;;;;;;25.67;9.40;;;;;;;-5.22;100.00;100559.19;5079350;28;20182;-67
2024/01/19 00:20:56;;;;;;;19.13;8.63;;;;;;;-5.24;100.00;100567.53;5087621;28;20047;-66
2024/01/19 00:23:23;;;;;;;20.98;8.63;;;;;;;-5.27;100.00;100555.25;5094259;28;20480;-66
2024/01/19 00:25:48;;;;;;;23.97;7.83;;;;;;;-5.29;100.00;100567.06;5087487;28;20185;-65
2024/01/19 00:28:15;;;;;;;23.83;9.65;;;;;;;-5.31;100.00;100562.50;5087771;28;20139;-67
2024/01/19 00:30:40;;;;;;;22.70;9.60;;;;;;;-5.33;100.00;100559.78;5078668;28;20028;-66
2024/01/19 00:33:05;;;;;;;17.73;7.68;;;;;;;-5.36;100.00;100564.63;5066194;28;20040;-66
2024/01/19 00:35:31;;;;;;;21.57;8.40;;;;;;;-5.37;100.00;100570.53;5067504;28;20052;-68
2024/01/19 00:37:59;;;;;;;21.48;8.20;;;;;;;-5.39;100.00;100563.44;5072293;28;20146;-67
2024/01/19 00:42:55;;;;;;;17.65;9.02;;;;;;;-5.46;100.00;100574.75;4999631;28;20369;-68
2024/01/19 00:45:20;;;;;;;18.30;8.83;;;;;;;-5.47;100.00;100574.59;5000187;28;20521;-67
2024/01/19 00:47:46;;;;;;;21.10;8.35;;;;;;;-5.51;100.00;100575.06;4997499;28;20134;-66
2024/01/19 00:50:12;;;;;;;18.00;8.10;;;;;;;-5.53;100.00;100580.06;4988427;28;20080;-67
2024/01/19 00:52:37;;;;;;;23.08;8.48;;;;;;;-5.57;100.00;100577.00;4980208;28;21181;-69
2024/01/19 00:55:03;;;;;;;18.63;7.73;;;;;;;-5.59;100.00;100575.97;4983492;28;20133;-67
2024/01/19 00:57:29;;;;;;;32.00;8.88;;;;;;;-5.62;100.00;100581.69;4978325;28;20039;-66
2024/01/19 00:59:55;;;;;;;20.60;7.43;;;;;;;-5.67;100.00;100581.22;4983969;28;20493;-66
2024/01/19 01:02:20;;;;;;;18.30;8.15;;;;;;;-5.70;100.00;100578.34;4985939;28;20038;-66
2024/01/19 01:04:46;;;;;;;19.93;9.00;;;;;;;-5.73;100.00;100590.91;4986441;28;20391;-67
2024/01/19 01:07:11;;;;;;;22.70;8.48;;;;;;;-5.77;100.00;100583.63;4979209;28;20030;-66
2024/01/19 01:09:37;;;;;;;20.87;8.77;;;;;;;-5.79;100.00;100594.53;5004738;28;20076;-66
2024/01/19 01:12:03;;;;;;;26.73;8.68;;;;;;;-5.82;100.00;100597.69;4992562;28;20596;-66
2024/01/19 01:14:28;;;;;;;23.47;8.83;;;;;;;-5.84;100.00;100598.28;4976713;28;20120;-66
2024/01/19 01:16:53;;;;;;;20.00;8.63;;;;;;;-5.84;100.00;100606.00;4977653;28;20117;-66
2024/01/19 01:19:19;;;;;;;16.90;7.47;;;;;;;-5.85;100.00;100593.91;4985223;28;20116;-67
2024/01/19 01:21:44;;;;;;;21.30;8.43;;;;;;;-5.84;100.00;100609.50;4998831;28;20035;-66
2024/01/19 01:24:10;;;;;;;17.88;7.95;;;;;;;-5.85;100.00;100606.75;4984335;28;20046;-67
2024/01/19 01:26:35;;;;;;;16.83;7.47;;;;;;;-5.84;100.00;100606.00;4980524;28;20550;-67
2024/01/19 01:29:00;;;;;;;19.83;7.60;;;;;;;-5.81;100.00;100603.72;4989687;28;20062;-67
2024/01/19 01:33:52;;;;;;;16.00;6.90;;;;;;;-5.81;100.00;100612.38;5060346;28;20741;-67
2024/01/19 01:36:17;;;;;;;18.77;7.50;;;;;;;-5.80;100.00;100614.19;5060175;28;20036;-66
2024/01/19 01:38:43;;;;;;;15.07;6.15;;;;;;;-5.76;100.00;100621.47;5048613;28;20037;-66
2024/01/19 01:43:39;;;;;;;21.45;7.53;;;;;;;-5.74;100.00;100624.19;5106732;27;20379;-66
2024/01/19 01:46:04;;;;;;;18.23;6.17;;;;;;;-5.73;100.00;100615.72;5100746;28;20038;-67
2024/01/19 01:48:29;;;;;;;15.98;6.85;;;;;;;-5.74;100.00;100614.81;5100357;28;20104;-66
2024/01/19 01:50:56;;;;;;;18.13;7.27;;;;;;;-5.71;100.00;100615.13;5100791;28;20043;-68
2024/01/19 01:53:22;;;;;;;15.73;6.55;;;;;;;-5.70;100.00;100614.38;5100459;28;20484;-67
2024/01/19 01:55:47;;;;;;;13.82;6.53;;;;;;;-5.66;100.00;100611.34;5101435;28;20080;-66
2024/01/19 01:58:15;;;;;;;13.57;5.85;;;;;;;-5.61;100.00;100621.19;5101000;28;20032;-68
2024/01/19 02:00:42;;;;;;;12.57;4.55;;;;;;;-5.55;100.00;100624.38;5101614;28;20544;-67
2024/01/19 02:03:09;;;;;;;13.95;5.97;;;;;;;-5.53;100.00;100620.31;5099012;28;20039;-67
2024/01/19 02:05:34;;;;;;;13.33;5.20;;;;;;;-5.48;100.00;100619.13;5098256;28;20063;-68
2024/01/19 02:10:30;;;;;;;17.43;7.10;;;;;;;-5.42;100.00;100624.88;5048080;28;20396;-67
2024/01/19 02:12:55;;;;;;;15.63;6.35;;;;;;;-5.44;100.00;100632.44;5040381;28;20067;-68
2024/01/19 02:15:22;;;;;;;15.97;6.60;;;;;;;-5.43;100.00;100629.13;5039787;28;20041;-67
2024/01/19 02:17:49;;;;;;;16.38;5.95;;;;;;;-5.42;100.00;100635.16;5040454;28;20569;-67
2024/01/19 02:24:57;;;;;;;16.70;7.25;;;;;;;-5.40;100.00;100644.88;5060411;28;20369;-67
2024/01/19 02:27:23;;;;;;;12.70;5.50;;;;;;;-5.39;100.00;100649.28;5043146;28;20361;-67
2024/01/19 02:29:49;;;;;;;15.93;6.07;;;;;;;-5.36;100.00;100653.78;5034488;28;20343;-67
2024/01/19 02:32:15;;;;;;;12.68;6.13;;;;;;;-5.34;100.00;100647.16;5020562;28;20895;-66
2024/01/19 02:34:40;;;;;;;14.80;5.27;;;;;;;-5.33;100.00;100648.97;5020369;28;20120;-69
2024/01/19 02:37:05;;;;;;;14.80;6.40;;;;;;;-5.32;100.00;100649.13;5026697;28;20128;-68
2024/01/19 02:39:31;;;;;;;14.40;6.07;;;;;;;-5.31;100.00;100648.38;5038451;28;20130;-66
2024/01/19 02:42:34;;;;;;;16.02;6.05;;;;;;;-5.30;100.00;100652.75;5020311;28;20049;-67
2024/01/19 02:44:59;;;;;;;23.43;6.27;;;;;;;-5.30;100.00;100652.75;5030243;28;20060;-66
2024/01/19 02:47:26;;;;;;;18.02;6.38;;;;;;;-5.28;100.00;100645.22;5039244;28;20037;-66
2024/01/19 02:49:53;;;;;;;14.95;5.68;;;;;;;-5.29;100.00;100644.28;5023188;28;20104;-66
2024/01/19 02:52:18;;;;;;;12.70;6.25;;;;;;;-5.29;100.00;100648.53;5023248;28;20048;-67
2024/01/19 02:54:43;;;;;;;14.43;6.70;;;;;;;-5.32;100.00;100649.13;5036179;28;20045;-67
2024/01/19 02:57:09;;;;;;;12.23;4.87;;;;;;;-5.30;100.00;100652.75;5026598;28;20034;-66
2024/01/19 02:59:34;;;;;;;18.40;6.43;;;;;;;-5.29;100.00;100648.53;5020048;28;20466;-67
2024/01/19 03:01:59;;;;;;;14.60;5.40;;;;;;;-5.29;100.00;100654.59;5028769;28;20128;-68
2024/01/19 03:04:27;;;;;;;15.93;5.83;;;;;;;-5.28;100.00;100660.66;5018991;28;20038;-66
2024/01/19 03:09:14;;;;;;;15.45;6.85;;;;;;;-5.34;100.00;100660.03;4996803;28;20405;-68
2024/01/19 03:11:39;;;;;;;16.60;6.20;;;;;;;-5.36;100.00;100661.53;4972494;28;20493;-69
2024/01/19 03:14:05;;;;;;;14.68;7.10;;;;;;;-5.39;100.00;100656.06;4972700;28;20092;-65
2024/01/19 03:16:30;;;;;;;18.13;6.03;;;;;;;-5.42;100.00;100666.94;5020533;28;20488;-68
2024/01/19 03:21:21;;;;;;;14.48;6.20;;;;;;;-5.43;100.00;100667.72;5091635;27;20428;-68
2024/01/19 03:23:46;;;;;;;14.27;5.25;;;;;;;-5.44;100.00;100678.78;5084522;28;20023;-68
2024/01/19 03:26:11;;;;;;;10.73;4.97;;;;;;;-5.44;100.00;100667.56;5081786;28;20988;-67
2024/01/19 03:28:37;;;;;;;13.47;5.57;;;;;;;-5.43;100.00;100664.25;5079459;28;20123;-66
2024/01/19 03:31:03;;;;;;;13.67;5.20;;;;;;;-5.44;100.00;100667.56;5080794;28;20193;-67
2024/01/19 03:33:28;;;;;;;11.85;4.95;;;;;;;-5.43;100.00;100665.16;5089446;28;20035;-67
2024/01/19 03:35:53;;;;;;;11.73;4.93;;;;;;;-5.44;100.00;100662.41;5071398;28;20169;-68
2024/01/19 03:38:19;;;;;;;12.67;5.00;;;;;;;-5.44;100.00;100667.56;5083349;28;20036;-68
2024/01/19 03:40:46;;;;;;;15.88;5.40;;;;;;;-5.46;100.00;100664.81;5082475;28;20515;-66
2024/01/19 03:43:11;;;;;;;14.85;5.45;;;;;;;-5.42;100.00;100663.47;5083782;28;20058;-66
2024/01/19 03:45:36;;;;;;;17.80;5.17;;;;;;;-5.44;100.00;100658.19;5097315;28;20130;-67
2024/01/19 03:48:03;;;;;;;12.67;5.03;;;;;;;-5.41;100.00;100665.28;5079916;28;20115;-67
2024/01/19 03:50:28;;;;;;;11.10;3.97;;;;;;;-5.42;100.00;100663.47;5098067;28;20024;-67
2024/01/19 03:52:53;;;;;;;14.53;4.90;;;;;;;-5.41;100.00;100661.06;5095923;28;20476;-66
2024/01/19 03:55:19;;;;;;;11.63;3.87;;;;;;;-5.39;100.00;100658.66;5080026;28;20113;-66
2024/01/19 03:57:44;;;;;;;10.63;3.80;;;;;;;-5.36;100.00;100666.66;5071526;28;20437;-65
2024/01/19 04:00:10;;;;;;;10.17;3.97;;;;;;;-5.34;100.00;100663.50;5079447;28;20067;-66
2024/01/19 04:02:38;;;;;;;17.13;4.32;;;;;;;-5.29;100.00;100666.53;5082575;28;20051;-66
2024/01/19 04:05:04;;;;;;;8.33;3.43;;;;;;;-5.25;100.00;100673.81;5101704;28;20032;-66
2024/01/19 04:09:51;;;;;;;14.38;5.35;;;;;;;-5.16;100.00;100666.09;5106102;27;20371;-66
2024/01/19 04:12:17;;;;;;;13.70;4.00;;;;;;;-5.11;100.00;100680.34;5084939;28;20075;-66
2024/01/19 04:14:44;;;;;;;14.20;4.55;;;;;;;-5.08;100.00;100686.69;5087741;28;20036;-68
2024/01/19 04:17:11;;;;;;;10.35;4.10;;;;;;;-5.03;100.00;100682.03;5085469;28;20088;-66
2024/01/19 04:19:40;;;;;;;13.13;4.72;;;;;;;-5.01;100.00;100689.16;5080663;28;20505;-66
2024/01/19 04:22:05;;;;;;;9.93;3.47;;;;;;;-4.98;100.00;100679.16;5088324;28;20432;-66
2024/01/19 04:24:31;;;;;;;15.13;4.10;;;;;;;-4.88;100.00;100686.13;5088093;28;20040;-66
2024/01/19 04:26:56;;;;;;;9.95;4.65;;;;;;;-4.79;100.00;100687.06;5087254;28;20036;-65
2024/01/19 04:29:22;;;;;;;10.80;4.23;;;;;;;-4.72;100.00;100689.47;5084886;28;20452;-66
2024/01/19 04:31:47;;;;;;;16.43;4.47;;;;;;;-4.70;100.00;100687.06;5092118;28;20047;-66
2024/01/19 04:34:13;;;;;;;12.00;4.07;;;;;;;-4.75;100.00;100683.13;5076481;28;20460;-67
2024/01/19 04:36:38;;;;;;;10.00;4.32;;;;;;;-4.76;100.00;100687.34;5070853;28;20058;-67
2024/01/19 04:39:04;;;;;;;9.10;3.40;;;;;;;-4.76;100.00;100697.66;5079606;28;20048;-66
2024/01/19 04:41:29;;;;;;;13.97;4.67;;;;;;;-4.78;100.00;100694.91;5087555;28;20035;-67
2024/01/19 04:43:55;;;;;;;16.98;5.30;;;;;;;-4.80;100.00;100699.03;5086669;28;20040;-66
2024/01/19 04:46:20;;;;;;;12.67;3.87;;;;;;;-4.80;100.00;100700.69;5079248;28;20046;-65
2024/01/19 04:51:05;;;;;;;12.63;4.97;;;;;;;-4.85;100.00;100699.31;5079962;28;20376;-64
2024/01/19 04:53:30;;;;;;;11.77;4.30;;;;;;;-4.87;100.00;100698.25;5063399;28;20044;-67
2024/01/19 04:55:55;;;;;;;17.77;4.40;;;;;;;-4.91;100.00;100701.28;5059744;28;20036;-65
2024/01/19 04:58:21;;;;;;;11.17;4.17;;;;;;;-4.95;100.00;100701.75;5061541;28;20128;-65
2024/01/19 05:00:47;;;;;;;8.43;3.73;;;;;;;-4.95;100.00;100705.22;5061288;28;20041;-64
2024/01/19 05:03:13;;;;;;;13.53;4.20;;;;;;;-4.94;100.00;100712.19;5058535;28;20318;-65
2024/01/19 05:05:38;;;;;;;9.35;3.30;;;;;;;-4.94;100.00;100712.19;5059174;28;20064;-64
2024/01/19 05:08:04;;;;;;;9.90;3.80;;;;;;;-4.94;100.00;100717.34;5060083;28;20512;-64
2024/01/19 05:10:31;;;;;;;10.40;3.72;;;;;;;-4.94;100.00;100719.00;5059150;28;20119;-65
2024/01/19 05:12:57;;;;;;;12.77;4.07;;;;;;;-4.93;100.00;100721.72;5059755;28;20109;-65
2024/01/19 05:15:22;;;;;;;12.88;4.30;;;;;;;-4.93;100.00;100716.56;5059130;28;20052;-65
2024/01/19 05:17:47;;;;;;;14.70;4.53;;;;;;;-4.93;100.00;100721.72;5059713;28;20089;-65
2024/01/19 05:20:13;;;;;;;11.73;4.23;;;;;;;-4.91;100.00;100727.03;5059123;28;20398;-66
2024/01/19 05:22:38;;;;;;;10.07;4.23;;;;;;;-4.88;100.00;100730.81;5066387;28;20566;-65
2024/01/19 05:25:04;;;;;;;13.70;3.97;;;;;;;-4.85;100.00;100728.56;5059220;28;20112;-65
2024/01/19 05:27:29;;;;;;;11.73;3.78;;;;;;;-4.86;100.00;100725.84;5059358;28;20032;-65
2024/01/19 05:29:54;;;;;;;14.20;3.80;;;;;;;-4.84;100.00;100729.50;5059143;28;20396;-65
2024/01/19 05:32:20;;;;;;;9.70;4.20;;;;;;;-4.86;100.00;100725.84;5059386;28;20029;-66
2024/01/19 05:34:45;;;;;;;7.47;2.80;;;;;;;-4.86;100.00;100731.91;5058838;28;20456;-65
2024/01/19 05:37:10;;;;;;;9.85;3.67;;;;;;;-4.84;100.00;100730.41;5061530;28;20116;-67
2024/01/19 05:39:36;;;;;;;13.57;4.27;;;;;;;-4.83;100.00;100731.28;5059410;28;20292;-66
2024/01/19 05:42:01;;;;;;;8.53;3.17;;;;;;;-4.84;100.00;100725.25;5059301;28;20052;-66
2024/01/19 05:44:27;;;;;;;7.67;2.73;;;;;;;-4.80;100.00;100737.69;5064781;28;20119;-66
2024/01/19 05:46:52;;;;;;;11.97;3.13;;;;;;;-4.71;100.00;100734.19;5058542;28;20043;-66
2024/01/19 05:49:17;;;;;;;7.83;2.63;;;;;;;-4.65;100.00;100742.53;5058541;28;20299;-66
2024/01/19 05:51:44;;;;;;;9.93;2.60;;;;;;;-4.60;100.00;100751.63;5058719;28;20098;-66
2024/01/19 05:54:09;;;;;;;5.10;1.73;;;;;;;-4.56;100.00;100751.19;5058980;28;20040;-67
2024/01/19 05:56:34;;;;;;;9.73;2.60;;;;;;;-4.47;100.00;100744.34;5058324;28;20435;-66
2024/01/19 05:59:00;;;;;;;13.23;2.93;;;;;;;-4.43;100.00;100734.50;5058788;28;20111;-65
2024/01/19 06:01:25;;;;;;;7.43;2.50;;;;;;;-4.42;100.00;100740.56;5052542;28;20182;-66
2024/01/19 06:03:50;;;;;;;5.60;1.77;;;;;;;-4.42;100.00;100737.97;5045423;28;20041;-67
2024/01/19 06:06:16;;;;;;;11.07;2.60;;;;;;;-4.43;100.00;100751.63;5045572;28;20390;-66
2024/01/19 06:08:41;;;;;;;9.17;2.43;;;;;;;-4.42;100.00;100748.28;5045429;28;20028;-65
2024/01/19 06:11:06;;;;;;;5.93;2.10;;;;;;;-4.43;100.00;100751.63;5045688;28;20135;-65
2024/01/19 06:13:32;;;;;;;8.00;2.43;;;;;;;-4.44;100.00;100762.72;5045744;28;20033;-65
2024/01/19 06:15:57;;;;;;;9.60;1.97;;;;;;;-4.44;100.00;100770.44;5045480;28;20131;-66
2024/01/19 06:18:23;;;;;;;7.47;2.97;;;;;;;-4.44;100.00;100767.88;5045824;28;20374;-64
2024/01/19 06:20:48;;;;;;;8.70;2.03;;;;;;;-4.44;100.00;100778.19;5048401;28;20041;-65
2024/01/19 06:23:14;;;;;;;5.93;1.67;;;;;;;-4.44;100.00;100767.88;5048912;28;20496;-68
2024/01/19 06:25:40;;;;;;;8.60;2.73;;;;;;;-4.46;100.00;100766.81;5045109;28;20037;-64
2024/01/19 06:28:06;;;;;;;8.07;2.65;;;;;;;-4.47;100.00;100776.19;5045544;28;20066;-65
2024/01/19 06:30:33;;;;;;;6.73;2.20;;;;;;;-4.45;100.00;100777.28;5044766;28;20071;-64
2024/01/19 06:32:58;;;;;;;12.65;2.35;;;;;;;-4.43;100.00;100779.97;5045231;28;20045;-65
2024/01/19 06:35:24;;;;;;;10.27;2.53;;;;;;;-4.41;100.00;100786.22;5044704;28;20053;-64
2024/01/19 06:37:49;;;;;;;8.30;3.07;;;;;;;-4.37;100.00;100778.94;5045146;28;20849;-65
2024/01/19 06:40:14;;;;;;;5.23;2.23;;;;;;;-4.37;100.00;100784.09;5041309;28;20033;-64
2024/01/19 06:42:41;;;;;;;14.90;2.67;;;;;;;-4.36;100.00;100785.00;5044795;28;20424;-66
2024/01/19 06:45:06;;;;;;;5.75;2.45;;;;;;;-4.36;100.00;100785.91;5049816;28;20044;-65
2024/01/19 06:47:32;;;;;;;9.63;2.88;;;;;;;-4.36;100.00;100793.66;5043080;28;20052;-66
2024/01/19 06:49:57;;;;;;;7.90;2.77;;;;;;;-4.39;100.00;100792.44;5044273;28;20053;-65
2024/01/19 06:52:23;;;;;;;8.47;2.37;;;;;;;-4.38;100.00;100796.81;5044518;28;20087;-65
2024/01/19 06:54:48;;;;;;;10.47;1.97;;;;;;;-4.25;100.00;100798.97;5044595;28;20061;-66
2024/01/19 06:57:13;;;;;;;9.10;2.23;;;;;;;-4.23;100.00;100793.19;5044527;28;20513;-65
2024/01/19 06:59:39;;;;;;;6.75;2.13;;;;;;;-4.18;100.00;100797.13;5044881;28;20136;-65
2024/01/19 07:02:04;;;;;;;10.10;2.80;;;;;;;-4.16;100.00;100795.63;5046589;28;20777;-65
2024/01/19 07:04:30;;;;;;;7.03;2.50;;;;;;;-4.12;100.00;100790.00;5044669;28;20278;-66
2024/01/19 07:06:55;;;;;;;7.43;2.80;;;;;;;-4.09;100.00;100802.28;5045027;28;20037;-65
2024/01/19 07:09:20;;;;;;;7.20;2.53;;;;;;;-4.08;100.00;100810.16;5044338;28;20116;-64
2024/01/19 07:11:46;;;;;;;11.93;2.50;;;;;;;-4.05;100.00;100810.50;5044711;28;20489;-66
2024/01/19 07:14:11;;;;;;;7.20;2.10;;;;;;;-4.03;100.00;100803.78;5043443;28;20041;-63
2024/01/19 07:16:40;;;;;;;5.90;2.40;;;;;;;-4.03;100.00;100813.19;5043917;28;20489;-65
2024/01/19 07:19:05;;;;;;;8.48;3.17;;;;;;;-4.02;100.00;100810.78;5044434;28;20111;-65
2024/01/19 07:21:39;;;;;;;6.80;2.80;;;;;;;-3.96;100.00;100821.72;5049699;28;20059;-66
2024/01/19 07:24:06;;;;;;;9.07;2.60;;;;;;;-3.96;100.00;100825.97;5044669;28;20040;-66
2024/01/19 07:28:59;;;;;;;6.63;3.03;;;;;;;-3.87;100.00;100828.53;5100952;27;20363;-65
2024/01/19 07:31:25;;;;;;;8.73;2.10;;;;;;;-3.83;100.00;100831.56;5091864;28;20055;-67
2024/01/19 07:33:50;;;;;;;9.17;1.93;;;;;;;-3.80;100.00;100838.69;5080628;28;20044;-67
2024/01/19 07:38:40;;;;;;;7.05;2.58;;;;;;;-3.78;100.00;100844.91;5100971;27;20488;-66
2024/01/19 07:41:06;;;;;;;7.07;2.60;;;;;;;-3.76;100.00;100848.56;5099355;28;20278;-66
2024/01/19 07:43:31;;;;;;;6.33;2.33;;;;;;;-3.72;100.00;100848.09;5106344;28;20101;-67
2024/01/19 07:45:57;;;;;;;7.90;1.90;;;;;;;-3.70;100.00;100850.03;5100709;28;20036;-66
2024/01/19 07:48:23;;;;;;;11.93;3.13;;;;;;;-3.67;100.00;100850.38;5101183;28;20293;-66
2024/01/19 07:50:49;;;;;;;6.60;2.50;;;;;;;-3.61;100.00;100863.88;5100886;28;20153;-66
2024/01/19 07:53:14;;;;;;;18.67;3.07;;;;;;;-3.57;100.00;100859.91;5101160;27;20131;-66
2024/01/19 07:55:39;;;;;;;6.83;2.47;;;;;;;-3.50;100.00;100860.66;5099073;28;20139;-66
2024/01/19 07:58:05;;;;;;;6.37;2.30;;;;;;;-3.42;100.00;100866.56;5100638;28;20118;-65
2024/01/19 08:00:31;;;;;;;6.22;2.22;;;;;;;-3.36;100.00;100863.69;5101833;28;20035;-66
2024/01/19 08:05:10;;;;;;;6.30;2.40;;;;;;;-3.24;100.00;100860.59;5003971;28;20904;-66
2024/01/19 08:07:37;;;;;;;10.60;2.60;;;;;;;-3.11;100.00;100870.44;4998925;28;20414;-66
2024/01/19 08:10:03;;;;;;;6.63;2.28;;;;;;;-3.03;100.00;100859.16;4992101;28;20050;-66
2024/01/19 08:12:28;;;;;;;8.45;2.40;;;;;;;-2.93;100.00;100876.47;4988358;28;20057;-66
2024/01/19 08:14:56;;;;;;;6.13;2.33;;;;;;;-2.85;100.00;100873.81;4991566;28;20211;-66
2024/01/19 08:17:22;;;;;;;9.10;3.13;;;;;;;-2.76;100.00;100881.53;4986487;28;20121;-66
2024/01/19 08:19:47;;;;;;;8.80;2.77;;;;;;;-2.69;100.00;100882.28;5001584;28;20049;-66
2024/01/19 08:22:13;;;;;;;12.87;2.93;;;;;;;-2.59;100.00;100871.13;4992125;28;20999;-67
2024/01/19 08:24:38;;;;;;;8.90;3.10;;;;;;;-2.43;100.00;100873.47;4978435;28;20464;-65
2024/01/19 08:27:04;;;;;;;8.70;2.47;;;;;;;-2.32;100.00;100884.03;4978107;28;20125;-66
2024/01/19 08:29:32;;;;;;;11.25;2.88;;;;;;;-2.19;100.00;100881.84;4985306;28;20070;-66
2024/01/19 08:31:57;;;;;;;10.30;3.03;;;;;;;-1.99;100.00;100891.44;4988217;28;20045;-67
2024/01/19 08:34:23;;;;;;;7.15;3.03;;;;;;;-1.83;100.00;100894.69;4983424;28;20046;-66
2024/01/19 08:36:48;;;;;;;11.37;3.07;;;;;;;-1.57;100.00;100896.09;4979124;28;20125;-64
2024/01/19 08:39:14;;;;;;;7.77;2.93;;;;;;;-1.39;100.00;100905.56;4987172;28;20050;-65
2024/01/19 08:41:42;;;;;;;5.80;2.10;;;;;;;-1.20;100.00;100898.66;4989996;28;20034;-64
2024/01/19 08:44:08;;;;;;;7.93;2.92;;;;;;;-1.02;100.00;100905.47;4995393;28;20872;-64
2024/01/19 08:46:34;;;;;;;8.07;2.88;;;;;;;-0.83;100.00;100907.06;4986431;28;20043;-64
2024/01/19 08:49:00;;;;;;;10.20;2.90;;;;;;;-0.73;100.00;100908.03;4992259;28;20042;-64
2024/01/19 08:51:28;;;;;;;11.52;3.15;;;;;;;-0.71;100.00;100911.69;4981004;28;20058;-64
2024/01/19 08:53:54;;;;;;;10.75;3.58;;;;;;;-0.51;100.00;100906.53;4978363;28;20035;-64
2024/01/19 08:56:20;;;;;;;10.97;2.93;;;;;;;-0.41;100.00;100912.50;4986542;28;20116;-64
2024/01/19 08:58:46;;;;;;;8.75;2.70;;;;;;;-0.40;99.45;100904.88;4978640;28;20073;-65
2024/01/19 09:01:18;;;;;;;7.87;2.83;;;;;;;-0.36;99.23;100919.00;4987930;28;20046;-65
2024/01/19 09:03:43;;;;;;;12.40;3.15;;;;;;;-0.28;98.82;100913.69;4986127;28;20038;-65
2024/01/19 09:06:09;;;;;;;8.47;3.00;;;;;;;-0.16;98.95;100929.44;4986034;28;20117;-65
2024/01/19 09:11:04;;;;;;;7.40;2.97;;;;;;;0.00;97.89;100929.97;5087363;27;20363;-66
2024/01/19 09:13:29;;;;;;;11.02;3.67;;;;;;;0.12;97.49;100928.38;5081271;28;20040;-64
2024/01/19 09:15:56;;;;;;;12.83;2.70;;;;;;;0.20;96.95;100932.53;5080607;28;20052;-64
2024/01/19 09:18:22;;;;;;;9.43;3.20;;;;;;;0.28;96.65;100936.69;5080820;28;20062;-67
2024/01/19 09:20:47;;;;;;;14.60;3.73;;;;;;;0.40;96.11;100935.09;5083213;28;20040;-64
2024/01/19 09:23:13;;;;;;;8.80;2.93;;;;;;;0.51;95.83;100938.59;5085223;28;20111;-64
2024/01/19 09:25:39;;;;;;;13.38;3.85;;;;;;;0.64;95.26;100937.97;5080941;28;20047;-65
2024/01/19 09:28:04;;;;;;;8.57;2.60;;;;;;;0.72;94.14;100943.00;5081380;28;20044;-65
2024/01/19 09:30:29;;;;;;;10.77;3.30;;;;;;;0.80;93.34;100943.63;5080139;28;20040;-64
2024/01/19 09:32:55;;;;;;;8.63;3.27;;;;;;;0.91;92.12;100952.28;5079901;28;20051;-65
2024/01/19 09:35:20;;;;;;;6.80;2.70;;;;;;;0.96;90.89;100957.09;5079369;28;20145;-65
2024/01/19 09:37:46;;;;;;;10.63;3.07;;;;;;;1.03;90.50;100948.09;5071436;28;20377;-65
2024/01/19 09:40:11;;;;;;;7.57;2.90;;;;;;;1.11;89.90;100953.13;5086562;28;20102;-66
2024/01/19 09:42:39;;;;;;;11.13;4.07;;;;;;;1.18;88.63;100957.16;5080579;28;20090;-64
2024/01/19 09:45:05;;;;;;;8.47;3.10;;;;;;;1.22;88.09;100959.22;5073854;28;20072;-67
2024/01/19 09:47:48;;;;;;;8.48;2.67;;;;;;;1.28;87.83;100964.94;5078000;28;20504;-67
2024/01/19 09:50:18;;;;;;;7.13;2.45;;;;;;;1.29;86.99;100965.03;5079165;28;20518;-66
2024/01/19 09:52:59;;;;;;;9.15;2.90;;;;;;;1.37;86.28;100970.88;5079990;28;20516;-66
2024/01/19 09:55:26;;;;;;;8.87;2.77;;;;;;;1.42;86.56;100973.84;5079193;28;20044;-65
2024/01/19 09:57:52;;;;;;;12.23;3.33;;;;;;;1.50;85.63;100972.75;5079516;28;20040;-66
2024/01/19 10:00:19;;;;;;;12.15;3.40;;;;;;;1.56;85.38;100970.63;5080826;28;20620;-66
2024/01/19 10:02:49;;;;;;;8.77;2.77;;;;;;;1.61;84.70;100982.31;5080173;28;20058;-66
2024/01/19 10:05:16;;;;;;;7.85;3.17;;;;;;;1.65;84.17;100990.50;5078738;28;20127;-65
2024/01/19 10:07:46;;;;;;;12.93;3.38;;;;;;;1.71;84.59;100982.28;5079469;28;20042;-65
2024/01/19 10:10:12;;;;;;;10.38;2.78;;;;;;;1.72;83.42;100992.81;5078842;28;20417;-66
2024/01/19 10:12:39;;;;;;;9.03;3.03;;;;;;;1.77;83.63;100980.16;5087468;28;20040;-66
2024/01/19 10:15:12;;;;;;;7.55;2.83;;;;;;;1.84;83.32;100984.13;5079222;28;20597;-66
2024/01/19 10:17:39;;;;;;;14.32;4.03;;;;;;;1.86;83.16;100986.09;5079187;28;20040;-65
2024/01/19 10:20:06;;;;;;;8.27;2.83;;;;;;;1.90;82.60;101003.75;5078911;28;20044;-65
2024/01/19 10:22:32;;;;;;;9.63;3.40;;;;;;;1.92;82.09;101006.50;5072484;28;20085;-67
2024/01/19 10:25:15;;;;;;;12.90;3.70;;;;;;;1.98;82.43;101009.56;5065346;28;20094;-66
2024/01/19 10:27:51;;;;;;;11.75;3.17;;;;;;;2.01;81.75;101022.84;5065513;28;20504;-67
2024/01/19 10:30:21;;;;;;;9.18;3.50;;;;;;;2.06;82.22;101026.72;5065201;28;20127;-67
2024/01/19 10:32:49;;;;;;;9.15;3.08;;;;;;;2.10;81.99;101019.28;5057228;28;20051;-66
2024/01/19 10:35:17;;;;;;;10.55;3.70;;;;;;;2.14;81.97;101023.94;5064924;28;20059;-65
2024/01/19 10:37:43;;;;;;;13.10;2.80;;;;;;;2.18;81.68;101039.00;5065472;28;20111;-66
2024/01/19 10:40:26;;;;;;;10.93;3.42;;;;;;;2.21;81.29;101033.13;5063851;28;20037;-66
2024/01/19 10:42:56;;;;;;;8.48;3.13;;;;;;;2.21;81.13;101027.00;5060102;28;20040;-66
2024/01/19 10:45:29;;;;;;;13.75;3.58;;;;;;;2.24;80.96;101032.47;5068428;28;20127;-66
2024/01/19 10:47:57;;;;;;;9.95;3.22;;;;;;;2.31;80.76;101034.75;5065602;28;20041;-66
2024/01/19 10:50:26;;;;;;;8.73;3.00;;;;;;;2.37;80.30;101040.47;5064683;28;20044;-66
2024/01/19 10:52:53;;;;;;;14.48;4.22;;;;;;;2.36;80.10;101036.94;5065074;28;20408;-66
2024/01/19 10:55:23;;;;;;;9.25;2.90;;;;;;;2.39;80.11;101036.25;5064777;28;20105;-67
2024/01/19 10:57:53;;;;;;;9.93;3.85;;;;;;;2.45;80.22;101042.88;5064756;28;20040;-65
2024/01/19 11:00:20;;;;;;;8.65;3.45;;;;;;;2.51;79.79;101048.56;5065524;28;20052;-66
2024/01/19 11:02:54;;;;;;;8.33;2.80;;;;;;;2.54;79.36;101047.88;5064516;28;20036;-65
2024/01/19 11:05:20;;;;;;;12.07;3.50;;;;;;;2.54;79.63;101056.59;5064173;28;20535;-66
2024/01/19 11:07:48;;;;;;;9.60;3.30;;;;;;;2.57;79.37;101055.91;5064508;28;20060;-65
2024/01/19 11:10:14;;;;;;;14.02;3.50;;;;;;;2.65;79.29;101052.22;5064174;28;20051;-65
2024/01/19 11:12:47;;;;;;;11.60;3.83;;;;;;;2.65;78.63;101067.88;5064594;28;20040;-65
2024/01/19 11:15:20;;;;;;;10.27;3.90;;;;;;;2.71;78.83;101067.44;5064000;28;20098;-66
2024/01/19 11:17:46;;;;;;;9.25;3.15;;;;;;;2.77;78.26;101065.25;5064377;28;20047;-65
2024/01/19 11:20:12;;;;;;;12.47;3.23;;;;;;;2.82;78.13;101080.47;5064307;28;20036;-65
2024/01/19 11:22:37;;;;;;;10.05;3.97;;;;;;;2.89;77.72;101079.25;5073697;28;20052;-65
2024/01/19 11:25:12;;;;;;;15.10;3.57;;;;;;;2.96;77.73;101077.22;5070397;28;20047;-66
2024/01/19 11:27:49;;;;;;;13.90;3.97;;;;;;;3.01;77.31;101073.25;5064483;28;20029;-67
2024/01/19 11:30:29;;;;;;;8.80;2.53;;;;;;;3.00;77.07;101081.00;5063754;28;20052;-66
2024/01/19 11:32:54;;;;;;;11.03;3.13;;;;;;;3.01;76.87;101081.09;5056452;28;20068;-67
2024/01/19 11:35:39;;;;;;;10.25;2.90;;;;;;;3.01;77.11;101080.19;5063750;28;20071;-66
2024/01/19 11:38:04;;;;;;;8.17;3.37;;;;;;;3.02;76.94;101080.31;5064090;28;20047;-65
2024/01/19 11:40:30;;;;;;;12.50;3.45;;;;;;;3.15;76.88;101078.63;5063789;28;20036;-65
2024/01/19 11:42:56;;;;;;;9.50;3.73;;;;;;;3.20;76.52;101080.81;5066506;28;20484;-64
2024/01/19 11:45:27;;;;;;;13.52;2.97;;;;;;;3.25;76.80;101087.28;5067020;28;20044;-69
2024/01/19 11:47:53;;;;;;;9.40;2.67;;;;;;;3.39;76.29;101089.22;5063853;28;20040;-65